KRQB

Details ICAO KRQB
Name ROBEN HOOD
Region United States
Timezone America/Detroit (UTC-4.0)
Plans Departing 3
Arriving 7
Stats Elevation 990 ft / 302 m (AMSL)
Location 43.722075° -85.502775°
Runways 2
Magnetic Variation 5.970° W
Sunrise 2018-05-27 10:07:36 UTC / 2018-05-27 06:07:36 Local
Sunset 2018-05-28 01:13:40 UTC / 2018-05-27 21:13:40 Local
Advertisement - Login to hide

Runways

ID Width Length Bearing (true) Bearing (mag) Surface Threshold Offset Overrun Length
09 75 ft / 23 m 4,289 ft / 1,307 m 90.29° 96.26° Asphalt 0 ft / 0 m 0 ft / 0 m
14 75 ft / 23 m 2,699 ft / 823 m 143.06° 149.03° Asphalt 0 ft / 0 m 0 ft / 0 m
27 75 ft / 23 m 4,289 ft / 1,307 m 270.30° 276.27° Asphalt 0 ft / 0 m 0 ft / 0 m
32 75 ft / 23 m 2,699 ft / 823 m 323.06° 329.03° Asphalt 0 ft / 0 m 0 ft / 0 m

Map

Weather


0- 5 10 15 20 25 30 35+ Temperature / ° C

Clouds and Precipitation
Forecast for 2018-05-27 06:00 UTC. Updated 40 minutes ago

Ground ~20,000 ft ~40,000 ft Winds

METAR

KRQB 270555Z AUTO 20006KT 10SM CLR 18/16 A2981 RMK AO2 T01810160 10272 20167 402960160

TAF

Not found

Frequencies

Recorded 121.12 MHz AWOS 3
Unicom 122.80 MHz CTAF/UNICOM
Warning: Do not use this data for real-world aviation or navigation. No guarantee of current accuracy is given.